createdAt,value
2018-10-18T00:01:55.398Z,14.20
2018-10-18T00:04:23.655Z,14.97
2018-10-18T00:06:51.971Z,14.40
2018-10-18T00:09:20.236Z,13.30
2018-10-18T00:11:48.512Z,14.50
2018-10-18T00:14:16.983Z,15.43
2018-10-18T00:16:45.137Z,16.17
2018-10-18T00:19:13.424Z,16.90
2018-10-18T00:21:41.731Z,17.03
2018-10-18T00:24:10.067Z,15.80
2018-10-18T00:26:38.283Z,15.40
2018-10-18T00:29:06.547Z,15.53
2018-10-18T00:31:34.831Z,16.80
2018-10-18T00:34:03.095Z,17.17
2018-10-18T00:36:31.406Z,16.97
2018-10-18T00:39:00.395Z,18.40
2018-10-18T00:41:28.682Z,18.07
2018-10-18T00:43:56.981Z,17.53
2018-10-18T00:46:25.276Z,18.90
2018-10-18T00:48:53.548Z,18.97
2018-10-18T00:51:21.963Z,20.47
2018-10-18T00:53:50.239Z,21.67
2018-10-18T00:56:18.500Z,22.80
2018-10-18T00:58:46.785Z,21.50
2018-10-18T01:01:15.043Z,23.60
2018-10-18T01:03:43.680Z,22.20
2018-10-18T01:06:12.059Z,22.23
2018-10-18T01:08:40.891Z,23.70
2018-10-18T01:11:09.170Z,24.53
2018-10-18T01:13:37.611Z,24.20
2018-10-18T01:16:06.079Z,24.67
2018-10-18T01:18:34.368Z,25.77
2018-10-18T01:21:02.651Z,24.80
2018-10-18T01:23:30.940Z,23.87
2018-10-18T01:25:59.570Z,22.27
2018-10-18T01:28:27.815Z,21.03
2018-10-18T01:30:56.087Z,21.27
2018-10-18T01:33:24.379Z,23.00
2018-10-18T01:35:52.672Z,23.93
2018-10-18T01:38:20.991Z,20.90
2018-10-18T01:40:49.275Z,22.77
2018-10-18T01:43:17.723Z,24.00
2018-10-18T01:45:45.999Z,25.50
2018-10-18T01:48:14.321Z,25.80
2018-10-18T01:50:42.611Z,27.70
2018-10-18T01:53:10.903Z,26.43
2018-10-18T01:55:39.176Z,28.43
2018-10-18T01:58:07.468Z,28.20
2018-10-18T02:00:36.466Z,27.77
2018-10-18T02:03:04.797Z,25.90
2018-10-18T02:05:33.051Z,26.57
2018-10-18T02:08:01.390Z,27.23
2018-10-18T02:10:29.636Z,27.40
2018-10-18T02:12:57.921Z,29.13
2018-10-18T02:15:26.215Z,28.77
2018-10-18T02:17:54.534Z,30.23
2018-10-18T02:20:22.794Z,29.97
2018-10-18T02:22:51.063Z,31.77
2018-10-18T02:25:19.443Z,31.40
2018-10-18T02:27:47.635Z,30.53
2018-10-18T02:30:16.062Z,30.00
2018-10-18T02:32:44.201Z,31.73
2018-10-18T02:35:12.702Z,32.00
2018-10-18T02:37:41.369Z,32.83
2018-10-18T02:40:09.707Z,31.70
2018-10-18T02:42:37.978Z,32.70
2018-10-18T02:45:06.318Z,32.13
2018-10-18T02:47:34.593Z,32.53
2018-10-18T02:50:02.876Z,32.73
2018-10-18T02:52:34.138Z,31.33
2018-10-18T02:55:02.435Z,31.07
2018-10-18T02:57:30.707Z,32.53
2018-10-18T02:59:58.994Z,34.83
2018-10-18T03:02:27.282Z,35.40
2018-10-18T03:04:55.563Z,35.40
2018-10-18T03:07:23.839Z,36.27
2018-10-18T03:09:52.125Z,36.33
2018-10-18T03:12:20.472Z,35.07
2018-10-18T03:14:48.694Z,35.10
2018-10-18T03:17:16.960Z,35.23
2018-10-18T03:19:45.428Z,34.43
2018-10-18T03:22:13.679Z,32.83
2018-10-18T03:24:41.972Z,34.50
2018-10-18T03:27:10.244Z,32.20
2018-10-18T03:29:38.544Z,32.23
2018-10-18T03:32:06.827Z,33.40
2018-10-18T03:34:35.104Z,31.63
2018-10-18T03:37:03.389Z,29.40
2018-10-18T03:39:31.671Z,32.67
2018-10-18T03:41:59.952Z,29.43
2018-10-18T03:44:28.681Z,30.20
2018-10-18T03:46:56.952Z,31.57
2018-10-18T03:49:25.293Z,29.87
2018-10-18T03:51:53.576Z,28.37
2018-10-18T03:54:21.844Z,29.27
2018-10-18T03:56:50.123Z,33.27
2018-10-18T03:59:18.408Z,29.17
2018-10-18T04:01:46.684Z,27.07
2018-10-18T04:04:14.960Z,27.77
2018-10-18T04:06:43.240Z,29.50
2018-10-18T04:09:11.515Z,27.17
2018-10-18T04:11:40.783Z,28.20
2018-10-18T04:14:09.159Z,32.33
2018-10-18T04:16:37.460Z,34.23
2018-10-18T04:19:06.052Z,36.03
2018-10-18T04:21:34.333Z,34.97
2018-10-18T04:24:02.681Z,36.97
2018-10-18T04:26:30.894Z,38.27
2018-10-18T04:28:59.181Z,40.93
2018-10-18T04:31:28.182Z,40.50
2018-10-18T04:33:56.451Z,44.63
2018-10-18T04:36:24.752Z,49.50
2018-10-18T04:38:53.040Z,49.10
2018-10-18T04:41:21.355Z,50.23
2018-10-18T04:43:49.639Z,50.90
2018-10-18T04:46:17.943Z,50.77
2018-10-18T04:48:46.214Z,49.07
2018-10-18T04:51:14.536Z,52.00
2018-10-18T04:53:42.806Z,50.10
2018-10-18T04:56:11.112Z,51.30
2018-10-18T04:58:39.402Z,49.27
2018-10-18T05:01:07.768Z,48.27
2018-10-18T05:03:36.008Z,46.77
2018-10-18T05:06:05.687Z,46.33
2018-10-18T05:08:33.951Z,45.63
2018-10-18T05:11:02.227Z,45.97
2018-10-18T05:13:30.519Z,47.43
2018-10-18T05:15:58.807Z,46.43
2018-10-18T05:18:27.133Z,45.00
2018-10-18T05:20:55.407Z,45.63
2018-10-18T05:23:23.699Z,46.03
2018-10-18T05:25:52.155Z,45.73
2018-10-18T05:28:20.742Z,45.90
2018-10-18T05:30:49.462Z,44.10
2018-10-18T05:33:17.758Z,44.87
2018-10-18T05:35:46.024Z,45.37
2018-10-18T05:38:14.879Z,45.93
2018-10-18T05:40:43.157Z,48.40
2018-10-18T05:43:11.538Z,46.47
2018-10-18T05:45:39.760Z,49.23
2018-10-18T05:48:08.191Z,47.77
2018-10-18T05:50:36.824Z,43.77
2018-10-18T05:53:05.782Z,47.10
2018-10-18T05:55:36.736Z,46.73
2018-10-18T05:58:05.054Z,44.13
2018-10-18T06:00:33.343Z,45.30
2018-10-18T06:03:01.628Z,47.60
2018-10-18T06:05:29.880Z,43.13
2018-10-18T06:07:58.259Z,46.23
2018-10-18T06:10:37.875Z,44.77
2018-10-18T06:13:06.139Z,43.70
2018-10-18T06:15:34.403Z,45.30
2018-10-18T06:18:02.720Z,47.03
2018-10-18T06:20:30.983Z,47.93
2018-10-18T06:22:59.429Z,45.43
2018-10-18T06:25:27.579Z,45.93
2018-10-18T06:27:55.874Z,46.03
2018-10-18T06:30:24.373Z,44.43
2018-10-18T06:32:52.724Z,42.83
2018-10-18T06:35:20.963Z,45.77
2018-10-18T06:37:49.255Z,47.83
2018-10-18T06:40:18.269Z,46.23
2018-10-18T06:42:46.739Z,44.10
2018-10-18T06:45:16.643Z,45.83
2018-10-18T06:47:45.267Z,44.63
2018-10-18T06:50:15.786Z,46.47
2018-10-18T06:52:44.098Z,46.00
2018-10-18T06:55:12.570Z,45.57
2018-10-18T06:57:41.764Z,47.37
2018-10-18T07:00:16.093Z,45.63
2018-10-18T07:02:44.803Z,46.00
2018-10-18T07:05:14.184Z,46.67
2018-10-18T07:07:42.935Z,43.13
2018-10-18T07:10:11.224Z,44.83
2018-10-18T07:12:39.991Z,41.73
2018-10-18T07:15:09.255Z,45.10
2018-10-18T07:17:38.479Z,45.67
2018-10-18T07:20:07.434Z,45.57
2018-10-18T07:22:36.199Z,44.33
2018-10-18T07:25:05.215Z,45.00
2018-10-18T07:27:33.503Z,43.50
2018-10-18T07:30:01.814Z,46.20
2018-10-18T07:32:30.089Z,43.93
2018-10-18T07:34:58.409Z,47.17
2018-10-18T07:37:26.699Z,46.47
2018-10-18T07:39:55.016Z,44.07
2018-10-18T07:42:23.335Z,45.73
2018-10-18T07:44:51.615Z,46.37
2018-10-18T07:47:20.059Z,46.60
2018-10-18T07:49:48.868Z,46.13
2018-10-18T07:52:17.131Z,49.37
2018-10-18T07:54:45.464Z,46.27
2018-10-18T07:57:13.783Z,48.80
2018-10-18T07:59:42.059Z,46.03
2018-10-18T08:02:10.343Z,47.13
2018-10-18T08:04:38.644Z,47.03
2018-10-18T08:07:06.947Z,46.67
2018-10-18T08:09:35.212Z,46.60
2018-10-18T08:12:03.499Z,44.60
2018-10-18T08:14:31.800Z,47.87
2018-10-18T08:17:00.096Z,46.73
2018-10-18T08:19:28.384Z,48.63
2018-10-18T08:21:56.664Z,47.27
2018-10-18T08:24:24.960Z,44.20
2018-10-18T08:26:53.226Z,46.53
2018-10-18T08:29:21.686Z,45.83
2018-10-18T08:31:50.015Z,45.20
2018-10-18T08:34:18.255Z,45.23
2018-10-18T08:36:46.523Z,44.23
2018-10-18T08:39:14.827Z,43.93
2018-10-18T08:41:44.171Z,46.13
2018-10-18T08:44:12.505Z,45.73
2018-10-18T08:46:40.767Z,43.70
2018-10-18T08:49:09.633Z,45.27
2018-10-18T08:51:37.828Z,45.93
2018-10-18T08:54:06.180Z,46.00
2018-10-18T08:56:34.519Z,43.30
2018-10-18T08:59:02.808Z,46.00
2018-10-18T09:01:31.111Z,45.43
2018-10-18T09:03:59.379Z,42.73
2018-10-18T09:06:27.848Z,45.80
2018-10-18T09:08:56.136Z,42.43
2018-10-18T09:11:24.439Z,41.93
2018-10-18T09:13:52.720Z,42.23
2018-10-18T09:16:21.035Z,40.77
2018-10-18T09:18:49.311Z,38.43
2018-10-18T09:21:17.601Z,38.63
2018-10-18T09:23:46.247Z,38.30
2018-10-18T09:26:14.542Z,37.93
2018-10-18T09:28:42.824Z,37.70
2018-10-18T09:31:11.202Z,38.47
2018-10-18T09:33:39.419Z,37.53
2018-10-18T09:36:07.696Z,36.30
2018-10-18T09:38:35.971Z,34.63
2018-10-18T09:41:04.290Z,34.63
2018-10-18T09:43:32.555Z,35.20
2018-10-18T09:46:00.855Z,32.27
2018-10-18T09:48:29.495Z,31.63
2018-10-18T09:50:57.790Z,31.53
2018-10-18T09:53:26.378Z,31.77
2018-10-18T09:55:54.694Z,29.63
2018-10-18T09:58:22.963Z,29.27
2018-10-18T10:00:57.389Z,30.53
2018-10-18T10:03:26.227Z,30.17
2018-10-18T10:05:54.498Z,27.40
2018-10-18T10:08:22.770Z,28.93
2018-10-18T10:10:51.063Z,28.07
2018-10-18T10:13:19.494Z,28.20
2018-10-18T10:15:47.664Z,26.87
2018-10-18T10:18:16.014Z,27.87
2018-10-18T10:20:44.287Z,28.73
2018-10-18T10:23:12.580Z,28.07
2018-10-18T10:25:40.864Z,25.90
2018-10-18T10:28:09.188Z,27.97
2018-10-18T10:30:37.461Z,26.83
2018-10-18T10:33:05.962Z,27.47
2018-10-18T10:35:34.234Z,25.87
2018-10-18T10:38:02.518Z,27.23
2018-10-18T10:40:30.807Z,27.27
2018-10-18T10:42:59.189Z,27.00
2018-10-18T10:45:27.724Z,27.77
2018-10-18T10:47:56.014Z,25.97
2018-10-18T10:50:24.298Z,25.70
2018-10-18T10:52:52.594Z,27.87
2018-10-18T10:55:20.867Z,26.47
2018-10-18T10:57:49.160Z,25.97
2018-10-18T11:00:33.238Z,27.63
2018-10-18T11:03:01.591Z,27.73
2018-10-18T11:05:29.820Z,28.23
2018-10-18T11:07:58.135Z,28.87
2018-10-18T11:10:26.406Z,28.97
2018-10-18T11:12:54.718Z,27.73
2018-10-18T11:15:22.999Z,28.30
2018-10-18T11:17:51.296Z,27.17
2018-10-18T11:20:19.711Z,28.00
2018-10-18T11:22:48.007Z,28.87
2018-10-18T11:25:16.675Z,28.57
2018-10-18T11:27:44.979Z,27.43
2018-10-18T11:30:13.386Z,28.37
2018-10-18T11:32:41.577Z,28.70
2018-10-18T11:35:09.847Z,28.77
2018-10-18T11:37:38.168Z,27.70
2018-10-18T11:40:07.004Z,28.20
2018-10-18T11:42:35.383Z,28.27
2018-10-18T11:45:03.628Z,28.37
2018-10-18T11:47:31.939Z,27.50
2018-10-18T11:50:00.247Z,26.43
2018-10-18T11:52:28.523Z,28.17
2018-10-18T11:54:56.808Z,29.73
2018-10-18T11:57:25.100Z,29.40
2018-10-18T11:59:53.386Z,28.07
2018-10-18T12:02:21.710Z,27.93
2018-10-18T12:04:49.979Z,28.63
2018-10-18T12:07:18.263Z,29.93
2018-10-18T12:09:46.555Z,28.07
2018-10-18T12:12:15.251Z,27.27
2018-10-18T12:14:43.528Z,28.17
2018-10-18T12:17:11.902Z,29.53
2018-10-18T12:19:40.119Z,28.63
2018-10-18T12:22:08.412Z,28.87
2018-10-18T12:24:36.722Z,27.43
2018-10-18T12:27:05.523Z,26.83
2018-10-18T12:29:33.931Z,27.67
2018-10-18T12:32:02.317Z,28.77
2018-10-18T12:34:30.559Z,28.20
2018-10-18T12:36:58.856Z,29.40
2018-10-18T12:39:27.191Z,30.73
2018-10-18T12:41:55.527Z,30.50
2018-10-18T12:44:23.800Z,28.77
2018-10-18T12:46:52.078Z,29.27
2018-10-18T12:49:20.413Z,30.30
2018-10-18T12:51:48.707Z,30.77
2018-10-18T12:54:17.083Z,29.77
2018-10-18T12:56:45.307Z,30.20
2018-10-18T12:59:13.734Z,30.63
2018-10-18T13:01:42.044Z,31.17
2018-10-18T13:04:10.363Z,31.33
2018-10-18T13:06:38.643Z,30.03
2018-10-18T13:09:09.247Z,30.70
2018-10-18T13:11:37.631Z,32.17
2018-10-18T13:14:06.213Z,32.57
2018-10-18T13:16:34.624Z,31.43
2018-10-18T13:19:02.951Z,31.47
2018-10-18T13:21:31.228Z,32.50
2018-10-18T13:23:59.554Z,32.53
2018-10-18T13:26:27.867Z,31.40
2018-10-18T13:28:56.210Z,30.73
2018-10-18T13:31:24.483Z,31.33
2018-10-18T13:33:52.821Z,30.83
2018-10-18T13:36:21.080Z,30.47
2018-10-18T13:38:49.392Z,29.47
2018-10-18T13:41:18.072Z,33.03
2018-10-18T13:43:46.376Z,32.57
2018-10-18T13:46:14.676Z,30.63
2018-10-18T13:48:43.342Z,31.30
2018-10-18T13:51:11.627Z,32.77
2018-10-18T13:53:42.072Z,31.17
2018-10-18T13:56:11.824Z,32.63
2018-10-18T13:58:40.175Z,31.30
2018-10-18T14:01:08.516Z,31.30
2018-10-18T14:03:39.435Z,31.20
2018-10-18T14:06:07.839Z,32.37
2018-10-18T14:08:36.216Z,32.03
2018-10-18T14:11:04.774Z,32.70
2018-10-18T14:13:33.031Z,32.40
2018-10-18T14:16:01.311Z,32.97
2018-10-18T14:18:29.620Z,34.83
2018-10-18T14:20:57.903Z,35.60
2018-10-18T14:23:26.208Z,34.27
2018-10-18T14:25:54.528Z,30.10
2018-10-18T14:28:22.783Z,30.83
2018-10-18T14:30:51.199Z,30.33
2018-10-18T14:33:19.391Z,31.13
2018-10-18T14:35:48.711Z,31.63
2018-10-18T14:38:17.020Z,32.13
2018-10-18T14:40:45.442Z,31.13
2018-10-18T14:43:13.743Z,29.83
2018-10-18T14:45:42.056Z,29.77
2018-10-18T14:48:10.380Z,29.40
2018-10-18T14:50:38.730Z,30.03
2018-10-18T14:53:07.055Z,29.63
2018-10-18T14:55:35.323Z,27.87
2018-10-18T14:58:03.888Z,28.53
2018-10-18T15:00:32.193Z,28.57
2018-10-18T15:03:00.531Z,28.60
2018-10-18T15:05:28.819Z,36.93
2018-10-18T15:07:57.768Z,28.10
2018-10-18T15:10:26.064Z,27.37
2018-10-18T15:12:54.360Z,27.90
2018-10-18T15:15:22.804Z,28.00
2018-10-18T15:17:51.074Z,26.50
2018-10-18T15:20:19.379Z,26.50
2018-10-18T15:22:47.669Z,33.20
2018-10-18T15:25:16.476Z,34.10
2018-10-18T15:27:44.821Z,27.30
2018-10-18T15:30:13.507Z,27.53
2018-10-18T15:32:41.788Z,25.30
2018-10-18T15:35:11.127Z,26.07
2018-10-18T15:37:39.928Z,26.37
2018-10-18T15:40:08.507Z,25.47
2018-10-18T15:42:36.799Z,25.07
2018-10-18T15:45:05.394Z,25.03
2018-10-18T15:47:33.727Z,24.50
2018-10-18T15:50:02.042Z,23.77
2018-10-18T15:52:30.311Z,23.07
2018-10-18T15:54:58.654Z,24.33
2018-10-18T15:57:26.915Z,24.33
2018-10-18T15:59:55.213Z,23.03
2018-10-18T16:02:23.495Z,22.80
2018-10-18T16:04:51.787Z,20.57
2018-10-18T16:07:20.066Z,21.47
2018-10-18T16:09:48.531Z,21.50
2018-10-18T16:12:16.810Z,21.10
2018-10-18T16:14:45.139Z,20.33
2018-10-18T16:17:13.499Z,20.50
2018-10-18T16:19:41.752Z,19.87
2018-10-18T16:22:10.019Z,19.70
2018-10-18T16:24:38.405Z,20.10
2018-10-18T16:27:06.730Z,18.63
2018-10-18T16:29:35.016Z,18.57
2018-10-18T16:32:03.420Z,20.50
2018-10-18T16:34:32.079Z,21.20
2018-10-18T16:37:00.620Z,19.60
2018-10-18T16:39:29.284Z,19.53
2018-10-18T16:41:57.674Z,20.70
2018-10-18T16:44:25.910Z,20.23
2018-10-18T16:46:54.226Z,19.83
2018-10-18T16:49:23.184Z,20.00
2018-10-18T16:51:52.214Z,19.80
2018-10-18T16:54:20.534Z,19.33
2018-10-18T16:56:48.828Z,18.93
2018-10-18T16:59:17.099Z,20.33
2018-10-18T17:01:45.396Z,18.47
2018-10-18T17:04:14.174Z,19.27
2018-10-18T17:06:42.605Z,18.67
2018-10-18T17:09:11.600Z,19.13
2018-10-18T17:11:39.955Z,18.70
2018-10-18T17:14:07.951Z,19.40
2018-10-18T17:16:36.271Z,20.33
2018-10-18T17:19:04.604Z,18.83
2018-10-18T17:21:32.917Z,17.63
2018-10-18T17:24:01.261Z,18.57
2018-10-18T17:26:29.592Z,18.20
2018-10-18T17:28:57.863Z,17.27
2018-10-18T17:31:26.251Z,19.07
2018-10-18T17:33:54.550Z,17.93
2018-10-18T17:36:22.835Z,15.17
2018-10-18T17:38:51.131Z,17.97
2018-10-18T17:41:19.433Z,16.90
2018-10-18T17:43:47.721Z,15.93
2018-10-18T17:46:16.083Z,16.90
2018-10-18T17:48:44.336Z,18.83
2018-10-18T17:51:12.735Z,21.47
2018-10-18T17:53:41.137Z,18.07
2018-10-18T17:56:09.810Z,18.40
2018-10-18T17:58:38.036Z,18.90
2018-10-18T18:01:08.661Z,18.07
2018-10-18T18:03:37.102Z,18.93
2018-10-18T18:06:05.822Z,18.23
2018-10-18T18:08:33.973Z,17.23
2018-10-18T18:11:02.481Z,19.67
2018-10-18T18:13:30.757Z,19.57
2018-10-18T18:15:59.095Z,20.37
2018-10-18T18:18:27.346Z,21.00
2018-10-18T18:20:55.683Z,20.47
2018-10-18T18:23:24.004Z,21.33
2018-10-18T18:25:52.372Z,19.27
2018-10-18T18:28:20.696Z,19.73
2018-10-18T18:30:49.029Z,21.03
2018-10-18T18:33:17.335Z,22.47
2018-10-18T18:35:45.664Z,22.03
2018-10-18T18:38:13.974Z,21.00
2018-10-18T18:40:42.298Z,21.30
2018-10-18T18:43:10.592Z,20.97
2018-10-18T18:45:38.980Z,21.13
2018-10-18T18:48:07.220Z,19.60
2018-10-18T18:50:35.583Z,19.83
2018-10-18T18:53:03.936Z,19.87
2018-10-18T18:55:32.220Z,20.20
2018-10-18T18:58:00.539Z,18.47
2018-10-18T19:00:28.829Z,18.90
2018-10-18T19:02:57.195Z,19.37
2018-10-18T19:05:25.451Z,17.47
2018-10-18T19:07:53.785Z,17.77
2018-10-18T19:10:22.131Z,16.90
2018-10-18T19:12:50.448Z,16.33
2018-10-18T19:15:18.754Z,16.07
2018-10-18T19:17:47.070Z,15.60
2018-10-18T19:20:15.368Z,16.00
2018-10-18T19:22:43.812Z,15.47
2018-10-18T19:25:12.420Z,15.03
2018-10-18T19:27:40.781Z,15.10
2018-10-18T19:30:10.263Z,14.47
2018-10-18T19:32:38.611Z,14.67
2018-10-18T19:35:06.916Z,15.03
2018-10-18T19:37:35.213Z,14.03
2018-10-18T19:40:03.532Z,15.63
2018-10-18T19:42:31.819Z,14.23
2018-10-18T19:45:00.124Z,14.03
2018-10-18T19:47:28.435Z,15.00
2018-10-18T19:49:56.723Z,15.53
2018-10-18T19:52:25.146Z,15.57
2018-10-18T19:54:53.281Z,15.57
2018-10-18T19:57:21.559Z,16.47
2018-10-18T19:59:49.832Z,15.27
2018-10-18T20:02:18.115Z,20.83
2018-10-18T20:04:46.387Z,14.30
2018-10-18T20:07:14.699Z,15.63
2018-10-18T20:09:43.076Z,13.80
2018-10-18T20:12:11.351Z,13.90
2018-10-18T20:14:39.643Z,13.93
2018-10-18T20:17:08.360Z,13.40
2018-10-18T20:19:36.638Z,13.83
2018-10-18T20:22:08.470Z,13.73
2018-10-18T20:24:36.757Z,17.33
2018-10-18T20:27:05.248Z,15.90
2018-10-18T20:29:33.520Z,15.97
2018-10-18T20:32:01.836Z,15.10
2018-10-18T20:34:30.115Z,15.60
2018-10-18T20:36:58.411Z,15.53
2018-10-18T20:39:26.679Z,15.53
2018-10-18T20:41:54.963Z,16.03
2018-10-18T20:44:23.259Z,15.83
2018-10-18T20:46:51.659Z,15.03
2018-10-18T20:49:19.951Z,14.73
2018-10-18T20:51:48.251Z,14.77
2018-10-18T20:54:16.523Z,15.20
2018-10-18T20:56:44.823Z,14.07
2018-10-18T20:59:13.131Z,13.67
2018-10-18T21:01:41.434Z,14.47
2018-10-18T21:04:09.716Z,12.70
2018-10-18T21:06:38.143Z,12.87
2018-10-18T21:09:08.075Z,11.87
2018-10-18T21:11:36.315Z,13.23
2018-10-18T21:14:04.680Z,12.10
2018-10-18T21:16:33.031Z,11.83
2018-10-18T21:19:01.348Z,12.50
2018-10-18T21:21:29.682Z,12.47
2018-10-18T21:23:58.052Z,12.33
2018-10-18T21:26:26.344Z,12.17
2018-10-18T21:28:54.770Z,11.43
2018-10-18T21:31:23.040Z,12.40
2018-10-18T21:33:51.529Z,11.50
2018-10-18T21:36:19.815Z,10.20
2018-10-18T21:38:48.156Z,10.30
2018-10-18T21:41:16.447Z,10.50
2018-10-18T21:43:44.756Z,11.30
2018-10-18T21:46:13.043Z,10.77
2018-10-18T21:48:42.109Z,9.97
2018-10-18T21:51:10.437Z,9.97
2018-10-18T21:53:38.698Z,10.40
2018-10-18T21:56:06.981Z,10.83
2018-10-18T21:58:35.315Z,10.30
2018-10-18T22:01:03.584Z,10.47
2018-10-18T22:03:31.895Z,10.10
2018-10-18T22:06:00.175Z,10.50
2018-10-18T22:08:28.466Z,11.23
2018-10-18T22:10:57.009Z,10.60
2018-10-18T22:13:25.303Z,10.67
2018-10-18T22:15:53.576Z,10.20
2018-10-18T22:18:21.875Z,9.80
2018-10-18T22:20:50.155Z,9.40
2018-10-18T22:23:18.440Z,9.07
2018-10-18T22:25:46.723Z,8.97
2018-10-18T22:28:15.023Z,8.40
2018-10-18T22:30:43.307Z,8.20
2018-10-18T22:33:11.663Z,8.67
2018-10-18T22:35:39.915Z,7.70
2018-10-18T22:38:08.191Z,7.27
2018-10-18T22:40:36.891Z,6.43
2018-10-18T22:43:05.680Z,6.67
2018-10-18T22:45:33.967Z,6.60
2018-10-18T22:48:02.227Z,6.30
2018-10-18T22:50:30.507Z,6.23
2018-10-18T22:52:58.827Z,6.27
2018-10-18T22:55:27.092Z,6.40
2018-10-18T22:57:55.350Z,6.00
2018-10-18T23:00:23.641Z,6.00
2018-10-18T23:02:51.943Z,5.83
2018-10-18T23:05:20.235Z,5.57
2018-10-18T23:07:48.515Z,5.50
2018-10-18T23:10:16.795Z,5.33
2018-10-18T23:12:45.055Z,5.83
2018-10-18T23:15:13.435Z,5.30
2018-10-18T23:17:41.671Z,5.20
2018-10-18T23:20:10.073Z,5.60
2018-10-18T23:22:38.351Z,5.37
2018-10-18T23:25:06.935Z,5.20
2018-10-18T23:27:35.219Z,5.50
2018-10-18T23:30:03.567Z,5.60
2018-10-18T23:32:31.830Z,5.57
2018-10-18T23:35:00.157Z,5.67
2018-10-18T23:37:28.524Z,5.97
2018-10-18T23:39:56.887Z,5.90
2018-10-18T23:42:25.155Z,6.17
2018-10-18T23:44:53.431Z,5.80
2018-10-18T23:47:21.751Z,6.40
2018-10-18T23:49:50.046Z,6.30
2018-10-18T23:52:18.326Z,6.57
2018-10-18T23:54:46.602Z,6.07
2018-10-18T23:57:14.929Z,6.87
2018-10-18T23:59:43.184Z,6.97
